This is the latest recevied weather packets stored in our database for station/object KF7ROW. If no packets are shown the sender has not sent any weather packets the latest 10 day(s).
| Time | Temp. | Humidity | Pressure | Rain* | Wind** | Luminosity | Snow |
|---|---|---|---|---|---|---|---|
| 1777491465 | 15° C | 61% | 1027 hPa | 0 mm | - | 779 W/m² | - |
| 1777491162 | 15° C | 62% | 1027.2 hPa | 0 mm | - | 779 W/m² | - |
| 1777490857 | 14.44° C | 66% | 1027.2 hPa | 0 mm | - | 775 W/m² | - |
| 1777490554 | 14.44° C | 68% | 1027.1 hPa | 0 mm | - | 773 W/m² | - |
| 1777490250 | 14.44° C | 67% | 1027 hPa | 0 mm | - | 429 W/m² | - |
| 1777489948 | 14.44° C | 65% | 1027.2 hPa | 0 mm | - | 588 W/m² | - |
| 1777489646 | 14.44° C | 66% | 1027.1 hPa | 0 mm | - | 765 W/m² | - |
| 1777489341 | 15.56° C | 58% | 1027.4 hPa | 0 mm | - | 753 W/m² | - |
| 1777489039 | 15° C | 55% | 1027.5 hPa | 0 mm | - | 752 W/m² | - |
| 1777488735 | 15° C | 59% | 1027.3 hPa | 0 mm | - | 752 W/m² | - |
| 1777488433 | 15° C | 60% | 1027.3 hPa | 0 mm | - | 336 W/m² | - |
| 1777488131 | 14.44° C | 63% | 1027.6 hPa | 0 mm | - | 749 W/m² | - |
| 1777487829 | 14.44° C | 62% | 1027.7 hPa | 0 mm | - | 731 W/m² | - |
| 1777487527 | 14.44° C | 62% | 1027.6 hPa | 0 mm | - | 625 W/m² | - |
| 1777487224 | 14.44° C | 62% | 1027.7 hPa | 0 mm | - | 718 W/m² | - |
| 1777486920 | 13.89° C | 62% | 1027.6 hPa | 0 mm | - | 713 W/m² | - |
| 1777486616 | 14.44° C | 61% | 1027.7 hPa | 0 mm | - | 736 W/m² | - |
| 1777486315 | 13.89° C | 65% | 1027.8 hPa | 0 mm | - | 678 W/m² | - |
| 1777486012 | 13.89° C | 66% | 1027.7 hPa | 0 mm | - | 712 W/m² | - |
| 1777485708 | 13.89° C | 64% | 1027.9 hPa | 0 mm | - | 741 W/m² | - |
| 1777485403 | 13.89° C | 66% | 1027.9 hPa | 0 mm | - | 666 W/m² | - |
| 1777485099 | 13.33° C | 67% | 1028 hPa | 0 mm | - | 654 W/m² | - |
| 1777484797 | 13.89° C | 66% | 1027.9 hPa | 0 mm | - | 643 W/m² | - |
| 1777484493 | 13.33° C | 68% | 1028 hPa | 0 mm | - | 632 W/m² | - |
| 1777484191 | 13.33° C | 69% | 1028.1 hPa | 0 mm | - | 625 W/m² | - |
* Rain latest hour (hover to see other rain measurements)
** Current wind speed in m/s (hover to see current wind gust speed)